Time;durP1;ratioP1;P1;durP2;ratioP2;P2;SDS_P1;SDS_P2;PMS_P1;PMS_P2;Temp;Humidity;BMP_temperature;BMP_pressure;BME280_temperature;BME280_humidity;BME280_pressure;Samples;Min_cycle;Max_cycle;Signal;HPM_P1;HPM_P2
2022/03/11 00:01:55;;;;;;;12.40;6.28;;;8.20;58.70;;;;;;4988127;28;20045;-79
2022/03/11 00:04:20;;;;;;;13.18;6.57;;;8.10;58.90;;;;;;4991502;28;20494;-79
2022/03/11 00:06:46;;;;;;;12.55;6.65;;;8.00;59.00;;;;;;4987610;28;20026;-79
2022/03/11 00:09:12;;;;;;;14.63;7.10;;;8.00;59.10;;;;;;4988721;28;20125;-79
2022/03/11 00:11:38;;;;;;;12.15;6.43;;;7.90;59.20;;;;;;5006869;28;20042;-79
2022/03/11 00:14:03;;;;;;;10.98;6.35;;;7.90;59.30;;;;;;4998330;28;20046;-79
2022/03/11 00:16:29;;;;;;;13.80;6.72;;;7.90;59.50;;;;;;4984329;28;20481;-79
2022/03/11 00:18:54;;;;;;;13.25;6.63;;;7.80;59.40;;;;;;4990717;28;20390;-79
2022/03/11 00:21:20;;;;;;;12.77;6.20;;;7.90;59.30;;;;;;5004743;28;20564;-79
2022/03/11 00:23:46;;;;;;;11.68;5.97;;;7.90;59.10;;;;;;5004256;28;20024;-79
2022/03/11 00:26:11;;;;;;;14.35;6.32;;;7.90;59.20;;;;;;4993613;28;20117;-79
2022/03/11 00:28:37;;;;;;;12.55;6.57;;;7.90;59.20;;;;;;4988824;28;20043;-79
2022/03/11 00:31:05;;;;;;;16.60;6.43;;;8.00;59.10;;;;;;4990104;28;20486;-79
2022/03/11 00:33:30;;;;;;;16.00;6.65;;;7.90;59.10;;;;;;5000491;28;20044;-79
2022/03/11 00:35:56;;;;;;;11.93;6.18;;;7.90;59.10;;;;;;4976660;28;20490;-78
2022/03/11 00:38:22;;;;;;;14.20;7.00;;;7.90;59.20;;;;;;4992984;28;20058;-78
2022/03/11 00:40:47;;;;;;;13.70;6.18;;;7.80;59.20;;;;;;4998538;28;20022;-78
2022/03/11 00:43:13;;;;;;;16.63;5.80;;;7.80;59.40;;;;;;4994738;28;20027;-78
2022/03/11 00:45:38;;;;;;;15.82;6.95;;;7.80;59.30;;;;;;4992043;28;20061;-78
2022/03/11 00:48:04;;;;;;;10.82;5.80;;;7.80;59.40;;;;;;4995100;28;20137;-78
2022/03/11 00:50:30;;;;;;;11.93;5.82;;;7.80;59.30;;;;;;4993643;28;20049;-78
2022/03/11 00:52:55;;;;;;;12.77;5.78;;;7.80;59.20;;;;;;4997386;28;20062;-78
2022/03/11 00:55:21;;;;;;;10.60;5.30;;;7.80;59.00;;;;;;4995017;28;20827;-78
2022/03/11 00:57:46;;;;;;;14.45;6.15;;;7.80;59.00;;;;;;4999804;28;20153;-78
2022/03/11 01:00:12;;;;;;;12.30;6.20;;;7.80;58.90;;;;;;4991797;28;20026;-77
2022/03/11 01:02:39;;;;;;;12.40;5.65;;;7.70;59.00;;;;;;4990752;28;20042;-78
2022/03/11 01:05:05;;;;;;;16.13;6.35;;;7.70;59.00;;;;;;4994345;28;20089;-78
2022/03/11 01:07:32;;;;;;;12.82;6.63;;;7.80;58.90;;;;;;5004689;28;20155;-77
2022/03/11 01:09:57;;;;;;;12.02;6.40;;;7.80;58.90;;;;;;4985086;28;20054;-78
2022/03/11 01:12:23;;;;;;;12.57;7.00;;;7.80;58.80;;;;;;5005445;28;20030;-78
2022/03/11 01:14:49;;;;;;;12.07;5.97;;;7.80;58.80;;;;;;5007851;28;20034;-78
2022/03/11 01:17:15;;;;;;;12.32;6.88;;;7.80;58.80;;;;;;5008322;28;20109;-77
2022/03/11 01:19:40;;;;;;;15.25;6.47;;;7.80;58.80;;;;;;4998949;28;20133;-78
2022/03/11 01:22:06;;;;;;;9.77;5.78;;;7.80;58.50;;;;;;5002439;28;20073;-77
2022/03/11 01:24:32;;;;;;;11.05;6.05;;;7.80;58.50;;;;;;4996157;28;20038;-78
2022/03/11 01:26:58;;;;;;;12.93;6.38;;;7.90;58.50;;;;;;5005952;28;20030;-77
2022/03/11 01:29:23;;;;;;;11.30;6.40;;;7.80;58.50;;;;;;4987435;28;20493;-78
2022/03/11 01:31:53;;;;;;;13.55;6.53;;;7.80;58.50;;;;;;4994906;28;20572;-78
2022/03/11 01:34:22;;;;;;;13.43;6.32;;;7.80;58.50;;;;;;5012647;28;20030;-78
2022/03/11 01:36:48;;;;;;;15.73;6.78;;;7.80;58.40;;;;;;4996223;28;20084;-78
2022/03/11 01:39:14;;;;;;;14.68;6.80;;;7.80;58.20;;;;;;4989623;28;20030;-77
2022/03/11 01:41:39;;;;;;;18.00;6.38;;;7.80;58.30;;;;;;4996399;28;20378;-77
2022/03/11 01:44:07;;;;;;;16.30;6.40;;;7.80;58.30;;;;;;5004883;28;20035;-77
2022/03/11 01:46:33;;;;;;;12.38;6.95;;;7.80;58.30;;;;;;4983591;28;20054;-78
2022/03/11 01:49:01;;;;;;;12.65;6.95;;;7.80;58.20;;;;;;4998376;28;20503;-77
2022/03/11 01:51:28;;;;;;;13.77;6.40;;;7.90;58.20;;;;;;5000829;28;20023;-77
2022/03/11 01:53:55;;;;;;;14.40;6.70;;;7.90;58.10;;;;;;4994237;28;20034;-77
2022/03/11 01:56:24;;;;;;;13.75;6.72;;;7.90;58.20;;;;;;4998168;28;20037;-77
2022/03/11 01:58:52;;;;;;;14.02;6.65;;;7.80;58.20;;;;;;4989960;28;20037;-78
2022/03/11 02:01:19;;;;;;;12.93;6.38;;;7.80;58.40;;;;;;5001052;28;20029;-77
2022/03/11 02:03:44;;;;;;;12.80;6.55;;;7.70;58.40;;;;;;4999648;28;20030;-78
2022/03/11 02:06:13;;;;;;;11.82;6.68;;;7.70;58.40;;;;;;5008115;28;20037;-78
2022/03/11 02:08:39;;;;;;;15.90;6.80;;;7.70;58.40;;;;;;4995166;28;20031;-77
2022/03/11 02:11:04;;;;;;;14.52;7.68;;;7.70;58.50;;;;;;4997885;28;20053;-77
2022/03/11 02:13:49;;;;;;;10.48;6.03;;;7.60;58.60;;;;;;5001375;28;20030;-78
2022/03/11 02:16:20;;;;;;;11.98;6.22;;;7.60;58.60;;;;;;5002794;28;20030;-78
2022/03/11 02:18:47;;;;;;;13.27;6.63;;;7.50;58.70;;;;;;4995527;28;20028;-78
2022/03/11 02:21:13;;;;;;;11.85;6.75;;;7.50;58.60;;;;;;5013280;28;20393;-78
2022/03/11 02:23:47;;;;;;;15.50;6.28;;;7.60;58.60;;;;;;5003919;28;20029;-78
2022/03/11 02:26:17;;;;;;;13.93;7.10;;;7.60;58.50;;;;;;4997287;28;20057;-78
2022/03/11 02:28:44;;;;;;;13.18;6.63;;;7.60;58.60;;;;;;4999513;28;20093;-77
2022/03/11 02:31:09;;;;;;;12.25;6.43;;;7.50;58.60;;;;;;5010423;28;20033;-78
2022/03/11 02:33:35;;;;;;;11.13;6.18;;;7.40;58.80;;;;;;5004704;28;20028;-77
2022/03/11 02:36:01;;;;;;;11.40;6.05;;;7.30;59.00;;;;;;4991063;28;20022;-79
2022/03/11 02:38:27;;;;;;;9.52;5.53;;;7.30;59.20;;;;;;4997315;28;20026;-78
2022/03/11 02:40:54;;;;;;;14.05;5.75;;;7.20;59.30;;;;;;4992466;28;20022;-77
2022/03/11 02:43:19;;;;;;;13.27;6.47;;;7.20;59.30;;;;;;4990731;28;20894;-77
2022/03/11 02:45:45;;;;;;;12.18;5.88;;;7.10;59.30;;;;;;4993298;28;20031;-77
2022/03/11 02:48:11;;;;;;;13.10;6.30;;;7.10;59.30;;;;;;4996758;28;20033;-77
2022/03/11 02:50:36;;;;;;;12.95;5.93;;;7.10;59.40;;;;;;4992628;28;20034;-78
2022/03/11 02:53:02;;;;;;;13.45;5.95;;;7.10;59.50;;;;;;4999387;28;20033;-77
2022/03/11 02:55:27;;;;;;;12.43;5.22;;;7.10;59.50;;;;;;4993309;28;20041;-77
2022/03/11 02:57:53;;;;;;;13.63;5.70;;;7.00;59.60;;;;;;4993553;28;20104;-77
2022/03/11 03:00:18;;;;;;;12.65;6.18;;;7.00;59.70;;;;;;4986194;28;20447;-77
2022/03/11 03:02:44;;;;;;;11.27;5.40;;;7.00;59.70;;;;;;4988722;28;20378;-77
2022/03/11 03:05:10;;;;;;;12.80;5.40;;;6.90;60.30;;;;;;5000989;28;20037;-78
2022/03/11 03:07:36;;;;;;;10.82;5.40;;;6.90;59.70;;;;;;4997827;28;20056;-78
2022/03/11 03:10:01;;;;;;;11.48;5.15;;;6.90;59.80;;;;;;5003843;28;20563;-78
2022/03/11 03:12:27;;;;;;;11.80;5.80;;;7.00;59.80;;;;;;5000154;28;20037;-78
2022/03/11 03:14:53;;;;;;;12.25;5.82;;;7.00;59.70;;;;;;5010168;28;20398;-78
2022/03/11 03:17:19;;;;;;;11.25;5.53;;;6.90;59.70;;;;;;5000420;28;20061;-78
2022/03/11 03:19:45;;;;;;;12.38;5.90;;;6.90;59.60;;;;;;4992699;28;20116;-78
2022/03/11 03:22:11;;;;;;;12.52;5.50;;;7.00;59.60;;;;;;4991646;28;20477;-78
2022/03/11 03:24:37;;;;;;;11.23;5.90;;;6.90;59.60;;;;;;5001936;28;20108;-77
2022/03/11 03:27:03;;;;;;;13.73;5.78;;;7.00;59.70;;;;;;4995352;28;20040;-77
2022/03/11 03:29:28;;;;;;;12.90;6.07;;;6.90;59.50;;;;;;4998150;28;20082;-78
2022/03/11 03:31:57;;;;;;;15.25;5.63;;;7.00;59.60;;;;;;4985770;28;20026;-78
2022/03/11 03:34:30;;;;;;;10.23;5.15;;;6.90;59.60;;;;;;4990717;28;20030;-78
2022/03/11 03:37:00;;;;;;;9.88;4.63;;;6.90;59.70;;;;;;4988622;28;20027;-78
2022/03/11 03:39:26;;;;;;;10.85;5.15;;;6.90;59.70;;;;;;4997932;28;20045;-79
2022/03/11 03:41:53;;;;;;;10.82;5.13;;;6.90;59.60;;;;;;4996416;28;20034;-78
2022/03/11 03:44:18;;;;;;;10.35;5.03;;;6.90;59.70;;;;;;4999958;28;20478;-78
2022/03/11 03:46:44;;;;;;;10.63;5.38;;;6.90;60.00;;;;;;4980838;28;20033;-78
2022/03/11 03:49:10;;;;;;;10.57;5.03;;;6.80;59.90;;;;;;5000238;28;20559;-78
2022/03/11 03:51:38;;;;;;;12.20;5.40;;;6.90;60.00;;;;;;5004505;28;20030;-78
2022/03/11 03:54:07;;;;;;;13.40;6.05;;;6.90;60.10;;;;;;4999750;28;20064;-78
2022/03/11 03:56:34;;;;;;;11.30;5.45;;;6.80;60.10;;;;;;5006058;28;20030;-79
2022/03/11 03:59:04;;;;;;;11.40;5.70;;;6.80;60.30;;;;;;4994600;28;20033;-78
2022/03/11 04:01:40;;;;;;;10.23;5.30;;;6.80;60.40;;;;;;4999799;28;20010;-78
2022/03/11 04:04:07;;;;;;;12.48;5.38;;;6.80;60.50;;;;;;5007969;28;20034;-77
2022/03/11 04:06:34;;;;;;;10.55;4.72;;;6.70;60.50;;;;;;5002051;28;20015;-78
2022/03/11 04:09:01;;;;;;;12.05;5.50;;;6.70;60.70;;;;;;4990059;28;20496;-78
2022/03/11 04:11:28;;;;;;;11.32;5.53;;;6.60;60.90;;;;;;5012392;28;20390;-77
2022/03/11 04:13:54;;;;;;;12.05;5.00;;;6.60;61.10;;;;;;4997964;28;20505;-77
2022/03/11 04:16:20;;;;;;;11.18;5.45;;;6.60;61.20;;;;;;5003148;28;20029;-77
2022/03/11 04:18:47;;;;;;;13.13;5.22;;;6.60;61.30;;;;;;4993201;28;20413;-78
2022/03/11 04:21:13;;;;;;;12.18;4.97;;;6.60;61.60;;;;;;4994884;28;20022;-77
2022/03/11 04:23:40;;;;;;;11.18;5.28;;;6.60;61.70;;;;;;5010574;28;20022;-77
2022/03/11 04:26:06;;;;;;;11.43;5.15;;;6.60;61.80;;;;;;5005237;28;20435;-76
2022/03/11 04:28:31;;;;;;;10.18;5.53;;;6.50;61.90;;;;;;4988359;28;20082;-77
2022/03/11 04:30:57;;;;;;;11.15;5.45;;;6.50;62.00;;;;;;4986013;28;20041;-77
2022/03/11 04:33:22;;;;;;;11.77;5.22;;;6.50;62.10;;;;;;4994952;28;20022;-77
2022/03/11 04:35:48;;;;;;;11.25;5.90;;;6.40;62.20;;;;;;5005548;28;20442;-78
2022/03/11 04:38:14;;;;;;;10.77;5.55;;;6.40;62.50;;;;;;4988631;28;20022;-78
2022/03/11 04:40:39;;;;;;;12.30;6.47;;;6.40;62.70;;;;;;4992322;28;20034;-77
2022/03/11 04:43:05;;;;;;;13.07;5.78;;;6.40;62.80;;;;;;4991222;28;20022;-78
2022/03/11 04:45:30;;;;;;;14.73;6.20;;;6.40;63.10;;;;;;4990445;28;20094;-78
2022/03/11 04:47:56;;;;;;;10.95;5.45;;;6.30;63.10;;;;;;5005818;28;20030;-77
2022/03/11 04:50:21;;;;;;;13.68;6.20;;;6.30;63.40;;;;;;5013593;28;20549;-78
2022/03/11 04:52:47;;;;;;;12.00;5.88;;;6.30;63.60;;;;;;4993331;28;20023;-78
2022/03/11 04:55:15;;;;;;;12.73;6.78;;;6.30;63.80;;;;;;4985223;28;20077;-77
2022/03/11 04:57:44;;;;;;;13.65;6.35;;;6.30;64.00;;;;;;4974302;28;20037;-77
2022/03/11 05:00:11;;;;;;;14.18;7.28;;;6.20;63.90;;;;;;4973972;28;20477;-78
2022/03/11 05:02:38;;;;;;;11.50;6.13;;;6.20;64.20;;;;;;4973767;28;20040;-77
2022/03/11 05:05:05;;;;;;;14.05;6.25;;;6.10;64.40;;;;;;4977364;28;20035;-78
2022/03/11 05:07:31;;;;;;;12.45;6.40;;;6.10;64.70;;;;;;4974103;28;20505;-78
2022/03/11 05:09:57;;;;;;;11.82;5.95;;;6.00;65.00;;;;;;4973763;28;20034;-76
2022/03/11 05:12:22;;;;;;;13.50;6.38;;;5.90;65.30;;;;;;4974491;28;20030;-78
2022/03/11 05:14:53;;;;;;;11.65;5.82;;;5.90;65.70;;;;;;4975531;28;20037;-77
2022/03/11 05:17:18;;;;;;;13.80;6.28;;;5.80;65.90;;;;;;4974835;28;20048;-78
2022/03/11 05:19:45;;;;;;;12.60;5.72;;;5.80;66.20;;;;;;4974610;28;20039;-77
2022/03/11 05:22:11;;;;;;;11.60;6.22;;;5.80;66.30;;;;;;4974942;28;20640;-77
2022/03/11 05:24:37;;;;;;;16.52;7.30;;;5.70;66.50;;;;;;4991848;28;20030;-78
2022/03/11 05:27:04;;;;;;;11.35;6.10;;;5.70;66.80;;;;;;4989211;28;20030;-78
2022/03/11 05:29:32;;;;;;;12.30;6.05;;;5.70;66.90;;;;;;4975234;28;20416;-77
2022/03/11 05:31:58;;;;;;;13.18;6.55;;;5.70;67.10;;;;;;4978411;28;20065;-78
2022/03/11 05:34:24;;;;;;;13.77;6.22;;;5.60;67.40;;;;;;4976523;28;20125;-79
2022/03/11 05:36:50;;;;;;;11.18;5.90;;;5.60;67.60;;;;;;4991295;28;20027;-78
2022/03/11 05:39:15;;;;;;;12.23;6.22;;;5.60;68.00;;;;;;4983465;28;20022;-77
2022/03/11 05:41:41;;;;;;;12.43;6.15;;;5.60;68.20;;;;;;4973482;28;20133;-77
2022/03/11 05:44:07;;;;;;;11.50;6.25;;;5.60;68.20;;;;;;4970443;28;20729;-78
2022/03/11 05:46:33;;;;;;;12.52;6.10;;;5.60;68.30;;;;;;4974778;28;20092;-77
2022/03/11 05:48:58;;;;;;;14.70;6.72;;;5.50;68.50;;;;;;4973704;28;20038;-78
2022/03/11 05:51:24;;;;;;;13.82;6.63;;;5.50;68.90;;;;;;4976902;28;20446;-78
2022/03/11 05:53:50;;;;;;;14.05;6.78;;;5.50;69.00;;;;;;4974361;28;20033;-80
2022/03/11 05:56:15;;;;;;;13.98;6.50;;;5.50;69.00;;;;;;4966574;28;20084;-79
2022/03/11 05:58:41;;;;;;;11.07;6.70;;;5.50;69.20;;;;;;4967444;28;21443;-78
2022/03/11 06:01:07;;;;;;;14.55;6.97;;;5.50;69.40;;;;;;4969083;28;20563;-79
2022/03/11 06:03:33;;;;;;;14.40;6.70;;;5.50;69.50;;;;;;4980869;28;20030;-80
2022/03/11 06:05:58;;;;;;;15.00;5.97;;;5.50;69.70;;;;;;4995133;28;20041;-79
2022/03/11 06:08:24;;;;;;;17.08;7.13;;;5.50;69.80;;;;;;4986410;28;20027;-78
2022/03/11 06:10:50;;;;;;;15.63;7.38;;;5.50;69.90;;;;;;5009198;28;20042;-78
2022/03/11 06:13:16;;;;;;;13.77;6.65;;;5.50;70.00;;;;;;5007257;28;20022;-77
2022/03/11 06:15:42;;;;;;;15.80;7.22;;;5.40;70.30;;;;;;5011422;28;20084;-78
2022/03/11 06:18:09;;;;;;;12.48;6.05;;;5.50;70.50;;;;;;4996157;28;20117;-79
2022/03/11 06:20:36;;;;;;;13.77;7.28;;;5.50;70.50;;;;;;4986665;28;20478;-78
2022/03/11 06:23:02;;;;;;;15.85;6.25;;;5.60;70.60;;;;;;5008600;28;20062;-79
2022/03/11 06:25:28;;;;;;;13.25;7.30;;;5.60;70.50;;;;;;5014490;28;20029;-79
2022/03/11 06:27:53;;;;;;;14.15;6.97;;;5.60;70.60;;;;;;5009517;28;20410;-78
2022/03/11 06:30:19;;;;;;;17.13;6.80;;;5.50;70.80;;;;;;4999348;28;20046;-79
2022/03/11 06:32:47;;;;;;;16.23;7.45;;;5.60;70.90;;;;;;5011053;28;20109;-79
2022/03/11 06:35:13;;;;;;;15.05;7.80;;;5.60;71.00;;;;;;5005770;28;20057;-79
2022/03/11 06:37:43;;;;;;;14.60;7.70;;;5.60;71.00;;;;;;5007747;28;20116;-79
2022/03/11 06:40:10;;;;;;;14.05;7.00;;;5.70;71.10;;;;;;4993751;28;20032;-79
2022/03/11 06:42:40;;;;;;;13.18;6.50;;;5.70;71.10;;;;;;4995793;28;20058;-79
2022/03/11 06:45:08;;;;;;;12.05;7.13;;;5.70;71.20;;;;;;5006162;28;20026;-79
2022/03/11 06:47:34;;;;;;;16.38;7.57;;;5.70;71.20;;;;;;5013345;28;20367;-79
2022/03/11 06:50:00;;;;;;;14.13;6.88;;;5.70;71.10;;;;;;5009272;28;20042;-79
2022/03/11 06:52:26;;;;;;;14.50;7.53;;;5.80;71.30;;;;;;4994187;28;20022;-79
2022/03/11 06:54:51;;;;;;;12.77;6.80;;;5.90;71.20;;;;;;5010549;28;20931;-79
2022/03/11 06:57:17;;;;;;;14.27;8.07;;;5.90;71.10;;;;;;5010448;28;20406;-79
2022/03/11 06:59:47;;;;;;;16.45;7.50;;;5.90;71.20;;;;;;5003309;28;20038;-79
2022/03/11 07:02:14;;;;;;;16.65;8.02;;;5.90;71.20;;;;;;4997611;28;20390;-79
2022/03/11 07:04:40;;;;;;;14.32;7.65;;;6.00;71.20;;;;;;5011399;28;20052;-80
2022/03/11 07:07:05;;;;;;;15.50;7.50;;;6.00;71.10;;;;;;4999106;28;20517;-80
2022/03/11 07:09:31;;;;;;;18.38;8.00;;;6.10;71.20;;;;;;5013859;28;20030;-79
2022/03/11 07:11:57;;;;;;;14.93;7.65;;;6.10;71.10;;;;;;4990917;28;20425;-79
2022/03/11 07:14:23;;;;;;;14.68;7.38;;;6.20;71.10;;;;;;4997101;28;20175;-79
2022/03/11 07:16:52;;;;;;;16.67;7.68;;;6.20;71.20;;;;;;5007385;28;20030;-79
2022/03/11 07:19:19;;;;;;;21.52;8.20;;;6.30;71.10;;;;;;5023201;28;20040;-79
2022/03/11 07:21:45;;;;;;;17.83;8.43;;;6.30;70.90;;;;;;5011752;28;20072;-80
2022/03/11 07:24:11;;;;;;;17.83;8.68;;;6.40;70.80;;;;;;4997851;28;20023;-80
2022/03/11 07:26:37;;;;;;;17.55;8.32;;;6.50;70.50;;;;;;4992500;28;20121;-80
2022/03/11 07:29:02;;;;;;;18.40;8.85;;;6.50;70.40;;;;;;5009673;28;20435;-79
2022/03/11 07:31:28;;;;;;;12.68;7.53;;;6.60;70.50;;;;;;5012559;28;20042;-79
2022/03/11 07:33:55;;;;;;;15.80;7.63;;;6.60;70.50;;;;;;4991480;28;20032;-79
2022/03/11 07:36:21;;;;;;;16.15;8.43;;;6.70;70.40;;;;;;4989306;28;20027;-79
2022/03/11 07:38:48;;;;;;;17.58;8.40;;;6.80;70.30;;;;;;4996013;28;20029;-79
2022/03/11 07:41:14;;;;;;;18.55;8.25;;;6.80;70.00;;;;;;4990962;28;20023;-79
2022/03/11 07:43:42;;;;;;;23.95;9.07;;;6.90;70.00;;;;;;4985272;28;20035;-79
2022/03/11 07:46:08;;;;;;;18.17;8.73;;;6.90;69.80;;;;;;5003055;28;20025;-80
2022/03/11 07:48:34;;;;;;;21.88;9.15;;;7.00;69.70;;;;;;5012532;28;20036;-79
2022/03/11 07:51:02;;;;;;;18.40;8.45;;;7.10;69.50;;;;;;4984385;28;20073;-79
2022/03/11 07:53:27;;;;;;;19.15;9.32;;;7.10;69.30;;;;;;5007990;28;20056;-80
2022/03/11 07:55:53;;;;;;;18.85;8.50;;;7.20;69.20;;;;;;5012956;28;20525;-80
2022/03/11 07:58:21;;;;;;;18.50;10.07;;;7.30;68.70;;;;;;5012937;28;20033;-80
2022/03/11 08:00:48;;;;;;;18.45;9.80;;;7.30;68.50;;;;;;4986629;28;20035;-80
2022/03/11 08:03:14;;;;;;;19.15;9.98;;;7.40;68.40;;;;;;4979751;28;20030;-79
2022/03/11 08:05:40;;;;;;;23.92;9.60;;;7.50;68.70;;;;;;4991548;28;20129;-80
2022/03/11 08:08:05;;;;;;;24.50;10.50;;;7.50;68.60;;;;;;4988585;28;20062;-80
2022/03/11 08:10:33;;;;;;;19.30;10.07;;;7.60;68.60;;;;;;4984494;28;20065;-80
2022/03/11 08:12:59;;;;;;;20.02;9.43;;;7.70;68.40;;;;;;4990851;28;20069;-80
2022/03/11 08:15:25;;;;;;;21.33;9.55;;;7.80;68.20;;;;;;4980939;28;20023;-80
2022/03/11 08:17:51;;;;;;;18.27;9.82;;;7.80;68.10;;;;;;4995795;28;20037;-79
2022/03/11 08:20:18;;;;;;;18.38;10.32;;;7.90;68.00;;;;;;4993012;28;20068;-80
2022/03/11 08:22:45;;;;;;;16.42;10.05;;;7.90;67.80;;;;;;5000974;28;20112;-80
2022/03/11 08:25:11;;;;;;;20.05;9.95;;;8.00;67.30;;;;;;5003543;28;20120;-80
2022/03/11 08:27:38;;;;;;;19.45;9.00;;;8.00;66.90;;;;;;5000024;28;20027;-79
2022/03/11 08:30:05;;;;;;;20.90;9.90;;;8.10;66.90;;;;;;4997317;28;20031;-80
2022/03/11 08:32:31;;;;;;;19.38;9.57;;;8.10;66.90;;;;;;5012216;28;20108;-80
2022/03/11 08:34:58;;;;;;;22.10;10.30;;;8.20;66.60;;;;;;5001685;28;20061;-80
2022/03/11 08:37:24;;;;;;;17.20;10.02;;;8.30;66.70;;;;;;5003202;28;20080;-80
2022/03/11 08:39:50;;;;;;;20.45;10.63;;;8.40;66.80;;;;;;5008271;28;20022;-77
2022/03/11 08:42:16;;;;;;;17.02;9.57;;;8.50;66.50;;;;;;5013270;28;20036;-79
2022/03/11 08:44:42;;;;;;;20.60;10.43;;;8.60;66.00;;;;;;4985838;28;20031;-79
2022/03/11 08:47:08;;;;;;;17.65;10.00;;;8.60;66.00;;;;;;5001693;28;20034;-78
2022/03/11 08:49:33;;;;;;;19.80;10.18;;;8.70;66.20;;;;;;5011058;28;20108;-79
2022/03/11 08:51:59;;;;;;;22.98;10.13;;;8.80;66.20;;;;;;5003651;28;20156;-79
2022/03/11 08:54:24;;;;;;;20.23;10.43;;;8.90;66.00;;;;;;4997921;28;20084;-79
2022/03/11 08:56:52;;;;;;;18.05;10.55;;;9.00;65.10;;;;;;5011107;28;20585;-79
2022/03/11 08:59:18;;;;;;;18.48;10.65;;;9.10;64.70;;;;;;5014270;28;20033;-79
2022/03/11 09:01:43;;;;;;;22.75;9.80;;;9.10;65.10;;;;;;5007680;28;20030;-79
2022/03/11 09:04:09;;;;;;;21.73;12.18;;;9.10;65.20;;;;;;4995909;28;20041;-79
2022/03/11 09:06:35;;;;;;;18.77;10.05;;;9.20;64.90;;;;;;5004946;28;20394;-79
2022/03/11 09:09:00;;;;;;;20.13;11.25;;;9.30;65.00;;;;;;5004011;28;20026;-79
2022/03/11 09:11:26;;;;;;;23.92;11.57;;;9.30;65.40;;;;;;5011987;28;20093;-80
2022/03/11 09:13:51;;;;;;;22.92;10.30;;;9.40;65.00;;;;;;5012675;28;20026;-79
2022/03/11 09:16:17;;;;;;;18.08;10.30;;;9.50;64.80;;;;;;5005010;28;20034;-79
2022/03/11 09:18:43;;;;;;;19.95;10.60;;;9.60;65.60;;;;;;5000916;28;20030;-79
2022/03/11 09:21:09;;;;;;;24.15;11.15;;;9.60;64.70;;;;;;5009404;28;20034;-79
2022/03/11 09:23:35;;;;;;;23.05;12.15;;;9.70;64.30;;;;;;4989846;28;20033;-79
2022/03/11 09:26:01;;;;;;;18.75;11.15;;;9.70;64.00;;;;;;4997408;28;20038;-79
2022/03/11 09:28:31;;;;;;;18.13;11.05;;;9.70;63.90;;;;;;4985566;28;20066;-79
2022/03/11 09:30:56;;;;;;;24.80;12.25;;;9.80;64.20;;;;;;4999029;28;20092;-79
2022/03/11 09:33:22;;;;;;;23.00;11.73;;;9.80;63.90;;;;;;5007313;28;20034;-79
2022/03/11 09:35:47;;;;;;;26.30;12.38;;;9.90;64.20;;;;;;4999010;28;20104;-80
2022/03/11 09:38:13;;;;;;;19.63;11.15;;;10.00;64.20;;;;;;5001621;28;20091;-79
2022/03/11 09:40:42;;;;;;;23.92;12.75;;;10.10;64.00;;;;;;5000621;28;20455;-79
2022/03/11 09:43:10;;;;;;;25.58;11.95;;;10.10;63.20;;;;;;4997731;28;20026;-79
2022/03/11 09:45:39;;;;;;;19.88;10.93;;;10.10;63.70;;;;;;4998732;28;20041;-79
2022/03/11 09:48:05;;;;;;;20.20;11.20;;;10.20;63.20;;;;;;4998587;28;20030;-79
2022/03/11 09:50:32;;;;;;;21.10;11.98;;;10.20;63.40;;;;;;4999226;28;20519;-78
2022/03/11 09:52:59;;;;;;;21.13;11.88;;;10.30;63.50;;;;;;5001539;28;20482;-80
2022/03/11 09:55:24;;;;;;;20.85;12.00;;;10.40;63.30;;;;;;5008343;28;20061;-79
2022/03/11 09:57:50;;;;;;;20.45;11.20;;;10.40;63.30;;;;;;5006310;28;20407;-79
2022/03/11 10:00:16;;;;;;;25.42;12.38;;;10.40;63.80;;;;;;4993619;28;20021;-79
2022/03/11 10:02:46;;;;;;;24.20;12.63;;;10.50;63.80;;;;;;4987216;28;20030;-79
2022/03/11 10:05:13;;;;;;;21.33;12.18;;;10.60;63.50;;;;;;4991645;28;20051;-79
2022/03/11 10:07:38;;;;;;;19.38;12.20;;;10.60;63.60;;;;;;4999951;28;20393;-80
2022/03/11 10:10:17;;;;;;;23.08;11.40;;;10.70;63.60;;;;;;4998974;28;20038;-79
2022/03/11 10:12:46;;;;;;;25.45;11.43;;;10.90;63.50;;;;;;5000709;28;20394;-80
2022/03/11 10:15:13;;;;;;;21.17;12.48;;;10.90;62.60;;;;;;4998080;28;20018;-78
2022/03/11 10:17:42;;;;;;;20.65;12.48;;;10.90;62.90;;;;;;4993061;28;20386;-80
2022/03/11 10:20:15;;;;;;;23.67;13.35;;;10.90;62.90;;;;;;5002565;28;20113;-80
2022/03/11 10:22:45;;;;;;;25.27;12.52;;;11.00;62.70;;;;;;5005982;28;20033;-78
2022/03/11 10:25:24;;;;;;;20.75;12.02;;;11.00;62.80;;;;;;4988169;28;20022;-79
2022/03/11 10:27:56;;;;;;;21.02;12.02;;;11.10;62.80;;;;;;4992351;28;20465;-79
2022/03/11 10:30:25;;;;;;;28.48;11.77;;;11.10;62.60;;;;;;4985539;28;20041;-79
2022/03/11 10:32:55;;;;;;;23.00;11.88;;;11.20;63.10;;;;;;4991069;28;20022;-79
2022/03/11 10:35:55;;;;;;;23.60;11.80;;;11.20;62.70;;;;;;4987154;28;20132;-79
2022/03/11 10:38:26;;;;;;;22.40;12.35;;;11.30;62.30;;;;;;4987398;28;20140;-78
2022/03/11 10:40:55;;;;;;;23.02;12.18;;;11.30;62.10;;;;;;4987107;28;20076;-80
2022/03/11 10:43:21;;;;;;;20.40;12.20;;;11.40;62.40;;;;;;4982980;28;20081;-79
2022/03/11 10:46:02;;;;;;;26.50;12.38;;;11.40;62.30;;;;;;4984672;28;20026;-79
2022/03/11 10:48:45;;;;;;;20.27;12.20;;;11.50;62.20;;;;;;4989106;28;20467;-79
2022/03/11 10:51:22;;;;;;;18.52;11.00;;;11.60;62.10;;;;;;4990144;28;20141;-80
2022/03/11 10:53:51;;;;;;;22.15;12.48;;;11.70;62.50;;;;;;4992536;28;20111;-79
2022/03/11 10:56:40;;;;;;;19.95;12.25;;;11.90;62.30;;;;;;4991407;28;20025;-80
2022/03/11 10:59:13;;;;;;;21.25;12.10;;;12.00;61.80;;;;;;4986854;28;20031;-80
2022/03/11 11:01:43;;;;;;;24.75;12.82;;;12.10;61.40;;;;;;4986010;28;20033;-79
2022/03/11 11:04:11;;;;;;;21.27;12.35;;;12.10;60.80;;;;;;5002324;28;20390;-79
2022/03/11 11:06:37;;;;;;;21.20;13.13;;;12.10;60.50;;;;;;4987533;28;20045;-79
2022/03/11 11:09:04;;;;;;;20.38;12.38;;;12.20;60.70;;;;;;4991602;28;20026;-79
2022/03/11 11:11:31;;;;;;;19.88;12.80;;;12.20;61.00;;;;;;4986720;28;20053;-79
2022/03/11 11:13:58;;;;;;;19.77;13.02;;;12.30;60.70;;;;;;4979891;28;20425;-79
2022/03/11 11:16:27;;;;;;;20.60;11.20;;;12.30;61.20;;;;;;4984542;28;20110;-79
2022/03/11 11:18:58;;;;;;;22.60;12.30;;;12.50;60.90;;;;;;4985720;28;20109;-79
2022/03/11 11:21:25;;;;;;;21.58;12.60;;;12.60;61.10;;;;;;4991086;28;20479;-79
2022/03/11 11:23:57;;;;;;;19.95;11.82;;;12.70;60.30;;;;;;4993246;28;20030;-79
2022/03/11 11:26:25;;;;;;;21.25;11.63;;;12.70;60.00;;;;;;4989046;28;20108;-79
2022/03/11 11:29:00;;;;;;;22.85;12.63;;;12.70;60.00;;;;;;4997158;28;20050;-79
2022/03/11 11:31:27;;;;;;;21.58;12.02;;;12.80;60.40;;;;;;4991130;28;20038;-80
2022/03/11 11:33:53;;;;;;;22.00;11.95;;;12.90;60.10;;;;;;4991368;28;20049;-80
2022/03/11 11:36:39;;;;;;;22.33;13.27;;;12.90;59.60;;;;;;4985689;28;20030;-80
2022/03/11 11:39:07;;;;;;;21.42;14.18;;;12.90;59.10;;;;;;4991638;28;20034;-80
2022/03/11 11:41:35;;;;;;;23.35;12.50;;;12.90;59.20;;;;;;4990002;28;22671;-80
2022/03/11 11:44:06;;;;;;;24.65;12.77;;;12.90;59.20;;;;;;4982248;28;20035;-79
2022/03/11 11:46:34;;;;;;;21.00;13.07;;;12.90;58.50;;;;;;4989960;28;20390;-80
2022/03/11 11:49:13;;;;;;;24.27;12.60;;;12.90;58.60;;;;;;4977792;28;20022;-79
2022/03/11 11:51:38;;;;;;;21.25;11.82;;;12.90;58.60;;;;;;5001417;28;20501;-79
2022/03/11 11:54:08;;;;;;;25.98;13.07;;;13.00;58.80;;;;;;4984464;28;20026;-79
2022/03/11 11:56:43;;;;;;;23.65;14.20;;;13.00;58.70;;;;;;4984153;28;20069;-80
2022/03/11 11:59:08;;;;;;;23.35;13.68;;;13.10;58.50;;;;;;4981301;28;20027;-79
2022/03/11 12:01:39;;;;;;;20.92;12.15;;;13.10;58.70;;;;;;4975066;28;20030;-79
2022/03/11 12:04:37;;;;;;;23.42;14.00;;;13.20;58.40;;;;;;4982503;28;20062;-79
2022/03/11 12:07:14;;;;;;;20.25;12.60;;;13.30;57.80;;;;;;4983008;28;20022;-78
2022/03/11 12:09:48;;;;;;;20.27;12.85;;;13.30;57.90;;;;;;4982120;28;20046;-79
2022/03/11 12:12:24;;;;;;;21.80;13.68;;;13.30;57.90;;;;;;4989424;28;20065;-80
2022/03/11 12:15:05;;;;;;;19.88;13.18;;;13.30;57.90;;;;;;5001268;28;22522;-80
2022/03/11 12:17:45;;;;;;;21.90;13.93;;;13.40;58.40;;;;;;4988290;28;20751;-80
2022/03/11 12:20:32;;;;;;;25.80;14.43;;;13.50;58.30;;;;;;4985136;28;20047;-78
2022/03/11 12:23:06;;;;;;;24.95;12.52;;;13.60;57.10;;;;;;4986184;28;20030;-78
2022/03/11 12:25:34;;;;;;;23.42;14.23;;;13.50;56.80;;;;;;4985553;28;20018;-80
2022/03/11 12:28:04;;;;;;;23.17;13.70;;;13.50;57.20;;;;;;4984401;28;20387;-79
2022/03/11 12:30:50;;;;;;;29.30;14.02;;;13.50;57.10;;;;;;4985602;28;20122;-79
2022/03/11 12:33:20;;;;;;;19.98;13.05;;;13.70;57.00;;;;;;4965714;28;20514;-80
2022/03/11 12:35:49;;;;;;;20.58;13.10;;;13.60;57.00;;;;;;4969260;28;20026;-79
2022/03/11 12:38:18;;;;;;;22.83;12.95;;;13.70;57.00;;;;;;4979177;28;20030;-79
2022/03/11 12:40:45;;;;;;;23.35;13.02;;;13.80;57.10;;;;;;4978443;28;20059;-79
2022/03/11 12:43:13;;;;;;;19.35;12.35;;;13.90;56.60;;;;;;4988876;28;20057;-79